Time;durP1;ratioP1;P1;durP2;ratioP2;P2;SDS_P1;SDS_P2;PMS_P1;PMS_P2;Temp;Humidity;BMP_temperature;BMP_pressure;BME280_temperature;BME280_humidity;BME280_pressure;Samples;Min_cycle;Max_cycle;Signal;HPM_P1;HPM_P2
2021/11/07 00:04:42;;;;;;;5.55;1.42;;;10.80;99.90;;;;;;5017557;28;20459;-77
2021/11/07 00:07:29;;;;;;;3.28;1.67;;;10.80;99.90;;;;;;5023515;28;20048;-78
2021/11/07 00:13:32;;;;;;;1.65;0.82;;;10.70;99.90;;;;;;5007940;28;20045;-78
2021/11/07 00:15:58;;;;;;;4.05;1.00;;;10.70;99.90;;;;;;4999500;28;20099;-79
2021/11/07 00:21:25;;;;;;;3.05;0.95;;;10.50;99.90;;;;;;5092547;28;20050;-79
2021/11/07 00:26:30;;;;;;;1.02;0.85;;;10.50;99.90;;;;;;5049470;28;20059;-79
2021/11/07 00:29:22;;;;;;;2.63;1.83;;;10.50;99.90;;;;;;5080236;28;20040;-78
2021/11/07 00:44:45;;;;;;;1.23;1.13;;;10.60;99.90;;;;;;5073188;28;20097;-78
2021/11/07 00:50:01;;;;;;;1.90;1.38;;;10.60;99.90;;;;;;5072315;28;20044;-77
2021/11/07 00:52:36;;;;;;;2.65;1.35;;;10.60;99.90;;;;;;5093183;28;20036;-77
2021/11/07 00:55:11;;;;;;;2.33;1.30;;;10.50;99.90;;;;;;5073102;28;20060;-76
2021/11/07 00:57:43;;;;;;;2.03;1.20;;;10.60;99.90;;;;;;5104779;28;20056;-76
2021/11/07 01:00:24;;;;;;;4.55;1.88;;;10.60;99.90;;;;;;5072468;28;20047;-76
2021/11/07 01:02:53;;;;;;;3.15;1.92;;;10.70;99.90;;;;;;5069973;28;20436;-76
2021/11/07 01:05:23;;;;;;;6.32;1.63;;;10.70;99.90;;;;;;5101943;28;20056;-76
2021/11/07 01:07:48;;;;;;;5.22;1.88;;;10.80;99.90;;;;;;5055328;28;20075;-76
2021/11/07 01:10:15;;;;;;;2.20;1.70;;;10.90;99.90;;;;;;5058548;28;20083;-76
2021/11/07 01:12:41;;;;;;;2.60;1.58;;;10.90;99.90;;;;;;5087223;28;20110;-76
2021/11/07 01:15:08;;;;;;;;;;;10.90;99.90;;;;;;5072662;28;20135;-76
2021/11/07 01:17:34;;;;;;;2.08;1.60;;;10.90;99.90;;;;;;5071458;28;19922;-75
2021/11/07 01:20:01;;;;;;;4.07;1.52;;;10.90;99.90;;;;;;5061128;28;20024;-76
2021/11/07 01:22:52;;;;;;;8.57;1.75;;;10.90;99.90;;;;;;5101833;27;20342;-75
2021/11/07 01:25:18;;;;;;;5.20;2.20;;;10.90;99.90;;;;;;5113751;27;20128;-76
2021/11/07 01:27:45;;;;;;;3.97;1.92;;;10.90;99.90;;;;;;5088956;28;20043;-75
2021/11/07 01:30:18;;;;;;;3.17;1.67;;;11.00;99.90;;;;;;5106211;28;20044;-76
2021/11/07 01:32:48;;;;;;;3.35;1.67;;;11.00;99.90;;;;;;5072113;28;20029;-76
2021/11/07 01:38:11;;;;;;;4.15;2.10;;;11.00;99.90;;;;;;5066217;28;20045;-76
2021/11/07 01:41:02;;;;;;;5.85;2.38;;;10.90;99.90;;;;;;5066521;28;20040;-76
2021/11/07 01:43:24;;;;;;;3.90;1.70;;;11.00;99.90;;;;;;5067937;28;20052;-76
2021/11/07 01:46:03;;;;;;;4.15;1.70;;;11.00;99.90;;;;;;5115423;27;20481;-76
2021/11/07 01:48:30;;;;;;;4.90;2.00;;;11.00;99.90;;;;;;5082599;28;20039;-77
2021/11/07 01:50:57;;;;;;;10.02;1.58;;;11.00;99.90;;;;;;5042450;28;20108;-76
2021/11/07 01:53:30;;;;;;;1.92;1.55;;;10.90;99.90;;;;;;5055006;28;20041;-77
2021/11/07 01:55:59;;;;;;;9.05;2.20;;;10.90;99.90;;;;;;5102495;27;20097;-77
2021/11/07 01:58:28;;;;;;;13.77;2.70;;;11.00;99.90;;;;;;5072227;28;20128;-77
2021/11/07 02:00:54;;;;;;;3.80;1.80;;;11.00;99.90;;;;;;5070655;28;20048;-77
2021/11/07 02:03:20;;;;;;;;;;;10.90;99.90;;;;;;5101878;28;20049;-77
2021/11/07 02:05:46;;;;;;;4.25;2.53;;;10.90;99.90;;;;;;5099540;28;20281;-77
2021/11/07 02:08:12;;;;;;;4.88;1.45;;;10.90;99.90;;;;;;5077406;28;20041;-76
2021/11/07 02:10:39;;;;;;;8.02;2.10;;;10.80;99.90;;;;;;5041590;28;20032;-76
2021/11/07 02:13:07;;;;;;;6.53;1.92;;;10.80;99.90;;;;;;5055482;28;20390;-76
2021/11/07 02:15:34;;;;;;;4.70;1.63;;;10.80;99.90;;;;;;5072193;28;20466;-76
2021/11/07 02:18:00;;;;;;;4.80;1.73;;;10.80;99.90;;;;;;5084224;28;20052;-76
2021/11/07 02:20:33;;;;;;;;;;;10.80;99.90;;;;;;5076170;28;20047;-76
2021/11/07 02:23:06;;;;;;;6.65;1.63;;;10.70;99.90;;;;;;5067640;28;20386;-77
2021/11/07 02:25:32;;;;;;;3.30;2.13;;;10.70;99.90;;;;;;5085070;28;20056;-78
2021/11/07 02:27:58;;;;;;;12.27;1.75;;;10.70;99.90;;;;;;5070196;28;20036;-78
2021/11/07 02:30:24;;;;;;;6.07;1.85;;;10.60;99.90;;;;;;5069251;28;20094;-77
2021/11/07 02:32:52;;;;;;;2.75;1.75;;;10.60;99.90;;;;;;5088640;28;20032;-77
2021/11/07 02:35:19;;;;;;;3.13;1.60;;;10.50;99.90;;;;;;5105385;28;20052;-76
2021/11/07 02:37:45;;;;;;;4.38;1.35;;;10.50;99.90;;;;;;5090284;28;20040;-76
2021/11/07 02:40:12;;;;;;;6.10;2.45;;;10.50;99.90;;;;;;5069141;28;20040;-77
2021/11/07 02:42:42;;;;;;;4.30;1.63;;;10.40;99.90;;;;;;5098863;28;20061;-76
2021/11/07 02:45:12;;;;;;;3.97;1.27;;;10.40;99.90;;;;;;5068663;28;20052;-77
2021/11/07 02:47:39;;;;;;;5.30;1.65;;;10.40;99.90;;;;;;5085084;28;20087;-77
2021/11/07 02:50:05;;;;;;;;;;;10.40;99.90;;;;;;5103038;28;20512;-77
2021/11/07 02:52:31;;;;;;;7.55;1.70;;;10.40;99.90;;;;;;5070969;28;19917;-76
2021/11/07 02:54:57;;;;;;;;;;;10.30;99.90;;;;;;5053003;28;20084;-76
2021/11/07 02:57:23;;;;;;;2.35;1.17;;;10.40;99.90;;;;;;5088080;28;20344;-77
2021/11/07 02:59:57;;;;;;;4.53;1.70;;;10.30;99.90;;;;;;5069567;28;20097;-76
2021/11/07 03:02:23;;;;;;;3.88;1.77;;;10.30;99.90;;;;;;5100288;27;20398;-76
2021/11/07 03:04:49;;;;;;;2.13;1.42;;;10.30;99.90;;;;;;5081832;28;20033;-76
2021/11/07 03:07:15;;;;;;;6.25;1.38;;;10.30;99.90;;;;;;5070274;28;20044;-76
2021/11/07 03:09:41;;;;;;;5.53;1.85;;;10.20;99.90;;;;;;5102136;28;20086;-76
2021/11/07 03:12:08;;;;;;;3.10;1.67;;;10.20;99.90;;;;;;5070217;28;20044;-77
2021/11/07 03:14:41;;;;;;;6.55;1.73;;;10.20;99.90;;;;;;5103646;28;20100;-78
2021/11/07 03:17:09;;;;;;;8.90;1.50;;;10.20;99.90;;;;;;5069991;28;20481;-78
2021/11/07 03:19:35;;;;;;;9.10;2.30;;;10.20;99.90;;;;;;5090077;28;20132;-78
2021/11/07 03:22:04;;;;;;;;;;;10.10;99.90;;;;;;5087421;28;20358;-78
2021/11/07 03:24:30;;;;;;;18.13;2.40;;;10.10;99.90;;;;;;5103522;28;19945;-78
2021/11/07 03:26:57;;;;;;;;;;;10.10;99.90;;;;;;5096665;28;20115;-76
2021/11/07 03:29:32;;;;;;;6.35;1.60;;;10.10;99.90;;;;;;5080866;28;19923;-76
2021/11/07 03:32:08;;;;;;;5.90;1.88;;;10.10;99.90;;;;;;5086861;28;20123;-76
2021/11/07 03:34:41;;;;;;;3.20;1.85;;;10.00;99.90;;;;;;5102992;28;20047;-76
2021/11/07 03:37:08;;;;;;;2.00;1.02;;;10.00;99.90;;;;;;5070067;28;20119;-76
2021/11/07 03:39:36;;;;;;;10.73;2.72;;;9.90;99.90;;;;;;5069330;28;20040;-76
2021/11/07 03:42:06;;;;;;;4.40;1.75;;;9.90;99.90;;;;;;5102765;28;20056;-76
2021/11/07 03:44:32;;;;;;;4.90;2.08;;;9.80;99.90;;;;;;5067005;28;20052;-76
2021/11/07 03:46:58;;;;;;;1.75;1.10;;;9.80;99.90;;;;;;5052833;28;20059;-77
2021/11/07 03:49:24;;;;;;;4.20;1.77;;;9.90;99.90;;;;;;5103882;28;20044;-76
2021/11/07 03:51:52;;;;;;;6.28;1.98;;;9.80;99.90;;;;;;5071336;28;20044;-77
2021/11/07 03:54:18;;;;;;;4.72;2.38;;;9.80;99.90;;;;;;5069468;28;20044;-77
2021/11/07 03:56:44;;;;;;;1.27;1.17;;;9.80;99.90;;;;;;5069140;28;20055;-77
2021/11/07 03:59:10;;;;;;;8.48;1.98;;;9.80;99.90;;;;;;5102655;28;20127;-77
2021/11/07 04:01:36;;;;;;;2.83;1.40;;;9.80;99.90;;;;;;5100355;28;20365;-78
2021/11/07 04:04:05;;;;;;;8.30;1.48;;;9.80;99.90;;;;;;5101185;28;20041;-77
2021/11/07 04:06:31;;;;;;;0.88;0.85;;;9.80;99.90;;;;;;5103159;28;20040;-77
2021/11/07 04:08:56;;;;;;;3.10;1.65;;;9.70;99.90;;;;;;5102571;28;20052;-77
2021/11/07 04:11:22;;;;;;;6.20;1.42;;;9.70;99.90;;;;;;5070599;28;20046;-77
2021/11/07 04:13:49;;;;;;;1.83;0.98;;;9.70;99.90;;;;;;5103878;28;20047;-78
2021/11/07 04:16:16;;;;;;;1.63;0.77;;;9.70;99.90;;;;;;5073386;28;20398;-78
2021/11/07 04:18:44;;;;;;;1.38;0.90;;;9.60;99.90;;;;;;5107266;28;20059;-78
2021/11/07 04:21:11;;;;;;;3.15;1.98;;;9.50;99.90;;;;;;5072986;28;20048;-76
2021/11/07 04:23:36;;;;;;;;;;;9.40;99.90;;;;;;5107487;28;20052;-77
2021/11/07 04:26:03;;;;;;;11.18;1.80;;;9.40;99.90;;;;;;5073478;28;19920;-76
2021/11/07 04:28:29;;;;;;;4.72;1.60;;;9.40;99.90;;;;;;5107170;28;20052;-76
2021/11/07 04:30:56;;;;;;;1.27;1.13;;;9.20;99.90;;;;;;5072982;28;20037;-77
2021/11/07 04:33:23;;;;;;;1.70;1.58;;;9.10;99.90;;;;;;5071227;28;20131;-77
2021/11/07 04:35:50;;;;;;;6.45;1.58;;;9.00;99.90;;;;;;5078684;28;20108;-76
2021/11/07 04:38:16;;;;;;;1.48;1.23;;;8.90;99.90;;;;;;5073250;28;20049;-76
2021/11/07 04:40:43;;;;;;;1.75;1.65;;;8.80;99.90;;;;;;5106827;28;20051;-76
2021/11/07 04:43:08;;;;;;;;;;;8.60;99.90;;;;;;5072545;28;20068;-76
2021/11/07 04:45:34;;;;;;;1.80;1.52;;;8.60;99.90;;;;;;5106535;28;20374;-76
2021/11/07 04:48:02;;;;;;;1.30;1.20;;;8.60;99.90;;;;;;5089818;28;20119;-76
2021/11/07 04:50:28;;;;;;;4.13;1.08;;;8.60;99.90;;;;;;5106112;28;20041;-76
2021/11/07 04:52:55;;;;;;;1.92;1.50;;;8.60;99.90;;;;;;5074047;28;20037;-77
2021/11/07 04:55:21;;;;;;;4.70;1.42;;;8.70;99.90;;;;;;5078592;28;20051;-76
2021/11/07 04:57:46;;;;;;;2.88;1.08;;;8.70;99.90;;;;;;5090031;28;20036;-77
2021/11/07 05:00:18;;;;;;;2.35;1.00;;;8.80;99.90;;;;;;5088913;28;20080;-76
2021/11/07 05:02:45;;;;;;;1.67;1.00;;;8.80;99.90;;;;;;5072772;28;20040;-76
2021/11/07 05:05:11;;;;;;;5.13;1.25;;;8.80;99.90;;;;;;5105619;28;20045;-76
2021/11/07 05:07:37;;;;;;;;;;;8.80;99.90;;;;;;5106875;28;20041;-76
2021/11/07 05:10:04;;;;;;;2.60;1.20;;;8.70;99.90;;;;;;5102222;28;20012;-76
2021/11/07 05:12:30;;;;;;;3.03;1.35;;;8.70;99.90;;;;;;5105916;28;20453;-76
2021/11/07 05:14:56;;;;;;;2.30;1.13;;;8.70;99.90;;;;;;5100590;28;20486;-76
2021/11/07 05:17:22;;;;;;;5.05;1.58;;;8.70;99.90;;;;;;5106699;28;20102;-76
2021/11/07 05:19:48;;;;;;;1.02;0.98;;;8.70;99.90;;;;;;5071653;28;20040;-76
2021/11/07 05:22:14;;;;;;;3.33;1.55;;;8.60;99.90;;;;;;5106525;28;20058;-76
2021/11/07 05:24:40;;;;;;;1.48;1.15;;;8.60;99.90;;;;;;5105646;27;20040;-76
2021/11/07 05:27:06;;;;;;;9.93;1.27;;;8.60;99.90;;;;;;5072318;28;20058;-76
2021/11/07 05:29:31;;;;;;;2.35;1.20;;;8.50;99.90;;;;;;5072293;28;20051;-76
2021/11/07 05:31:59;;;;;;;5.57;1.20;;;8.50;99.90;;;;;;5071536;28;20120;-77
2021/11/07 05:34:25;;;;;;;1.20;1.00;;;8.50;99.90;;;;;;5072416;28;20044;-77
2021/11/07 05:36:51;;;;;;;2.22;0.95;;;7.80;99.90;;;;;;5074128;28;20385;-76
2021/11/07 05:39:18;;;;;;;4.85;1.58;;;8.60;99.90;;;;;;5071335;28;20048;-76
2021/11/07 05:41:44;;;;;;;5.63;1.55;;;8.60;99.90;;;;;;5070561;28;20052;-77
2021/11/07 05:44:10;;;;;;;1.88;1.17;;;8.60;99.90;;;;;;5054700;28;20501;-76
2021/11/07 05:46:36;;;;;;;7.80;1.85;;;8.60;99.90;;;;;;5068770;28;20175;-76
2021/11/07 05:49:03;;;;;;;0.77;0.77;;;8.60;99.90;;;;;;5069785;28;20401;-76
2021/11/07 05:51:29;;;;;;;9.52;1.58;;;8.50;99.90;;;;;;5101213;28;20040;-76
2021/11/07 05:53:55;;;;;;;;;;;8.50;99.90;;;;;;5107970;27;20047;-77
2021/11/07 05:56:21;;;;;;;0.80;0.75;;;8.50;99.90;;;;;;5070751;28;19916;-76
2021/11/07 05:58:46;;;;;;;0.63;0.63;;;8.50;99.90;;;;;;5055246;28;20101;-76
2021/11/07 06:01:12;;;;;;;0.70;0.70;;;8.50;99.90;;;;;;5104203;28;20101;-76
2021/11/07 06:03:38;;;;;;;0.73;0.73;;;8.50;99.90;;;;;;5081441;28;20473;-76
2021/11/07 06:06:04;;;;;;;1.85;1.10;;;8.40;99.90;;;;;;5108887;27;20040;-76
2021/11/07 06:08:30;;;;;;;0.80;0.80;;;8.40;99.90;;;;;;5062665;28;20111;-76
2021/11/07 06:10:57;;;;;;;1.08;1.02;;;8.30;99.90;;;;;;5076649;28;20040;-76
2021/11/07 06:13:23;;;;;;;1.80;0.90;;;8.30;99.90;;;;;;5070989;28;20049;-76
2021/11/07 06:15:49;;;;;;;1.20;0.88;;;8.20;99.90;;;;;;5101661;28;20040;-77
2021/11/07 06:18:14;;;;;;;4.18;1.75;;;8.20;99.90;;;;;;5072569;28;20114;-76
2021/11/07 06:20:41;;;;;;;2.83;0.90;;;8.20;99.90;;;;;;5104475;28;20044;-76
2021/11/07 06:23:09;;;;;;;;;;;8.20;99.90;;;;;;5105262;28;20135;-76
2021/11/07 06:25:36;;;;;;;1.67;1.17;;;8.30;99.90;;;;;;5070743;28;19919;-76
2021/11/07 06:28:01;;;;;;;1.33;1.23;;;8.30;99.90;;;;;;5081199;28;20531;-77
2021/11/07 06:30:28;;;;;;;0.77;0.70;;;8.40;99.90;;;;;;5103292;28;20045;-76
2021/11/07 06:32:54;;;;;;;2.35;1.10;;;8.40;99.90;;;;;;5070481;28;20051;-76
2021/11/07 06:35:20;;;;;;;;;;;8.30;99.90;;;;;;5070004;28;20547;-76
2021/11/07 06:37:46;;;;;;;2.47;1.95;;;8.40;99.90;;;;;;5104295;28;19917;-76
2021/11/07 06:40:12;;;;;;;4.15;1.55;;;8.40;99.90;;;;;;5090898;28;20521;-77
2021/11/07 06:42:38;;;;;;;2.22;1.55;;;8.30;99.90;;;;;;5104431;28;20141;-78
2021/11/07 06:45:04;;;;;;;1.70;1.33;;;8.30;99.90;;;;;;5054937;28;20486;-77
2021/11/07 06:47:30;;;;;;;;;;;8.20;99.90;;;;;;5105373;28;20094;-76
2021/11/07 06:49:56;;;;;;;2.33;1.27;;;8.10;99.90;;;;;;5070259;28;20022;-77
2021/11/07 06:52:23;;;;;;;7.47;2.67;;;8.10;99.90;;;;;;5056031;28;20046;-78
2021/11/07 06:54:49;;;;;;;0.93;0.93;;;8.10;99.90;;;;;;5071771;28;20103;-77
2021/11/07 06:57:15;;;;;;;5.63;1.00;;;8.10;99.90;;;;;;5103906;28;20119;-77
2021/11/07 06:59:41;;;;;;;2.55;1.13;;;8.10;99.90;;;;;;5053924;28;20051;-77
2021/11/07 07:02:07;;;;;;;0.70;0.70;;;8.20;99.90;;;;;;5069921;28;20452;-77
2021/11/07 07:04:33;;;;;;;5.78;1.45;;;8.10;99.90;;;;;;5070182;28;20098;-77
2021/11/07 07:06:58;;;;;;;6.88;1.48;;;8.20;99.90;;;;;;5070200;28;20033;-77
2021/11/07 07:09:30;;;;;;;3.85;2.05;;;8.10;99.90;;;;;;5102964;28;20044;-77
2021/11/07 07:12:13;;;;;;;6.75;1.42;;;8.10;99.90;;;;;;5086615;28;20367;-76
2021/11/07 07:15:15;;;;;;;0.98;0.90;;;8.20;99.90;;;;;;5092391;27;20041;-77
2021/11/07 07:33:02;;;;;;;7.13;1.45;;;8.20;99.90;;;;;;5083857;28;20049;-76
2021/11/07 07:35:29;;;;;;;3.65;1.08;;;8.10;99.90;;;;;;5059320;28;20052;-76
2021/11/07 07:37:55;;;;;;;4.30;1.13;;;8.10;99.90;;;;;;5069488;28;20045;-76
2021/11/07 07:40:22;;;;;;;12.23;1.58;;;8.20;99.90;;;;;;5069761;28;20493;-76
2021/11/07 07:42:48;;;;;;;1.02;0.90;;;8.30;99.90;;;;;;5095532;28;20428;-77
2021/11/07 07:45:15;;;;;;;1.42;1.20;;;8.30;99.90;;;;;;5103624;28;20119;-76
2021/11/07 07:47:43;;;;;;;2.40;1.25;;;8.30;99.90;;;;;;5102781;28;20040;-76
2021/11/07 07:50:10;;;;;;;6.90;1.88;;;8.40;99.90;;;;;;5068916;28;20036;-77
2021/11/07 07:52:39;;;;;;;2.55;1.95;;;8.40;99.90;;;;;;5071053;28;20040;-77
2021/11/07 07:55:08;;;;;;;1.98;1.00;;;8.40;99.90;;;;;;5061256;28;20072;-77
2021/11/07 07:57:34;;;;;;;0.95;0.93;;;8.50;99.90;;;;;;5097393;28;20080;-77
2021/11/07 08:00:00;;;;;;;3.67;2.05;;;8.50;99.90;;;;;;5082694;28;20076;-77
2021/11/07 08:02:26;;;;;;;0.82;0.82;;;8.50;99.90;;;;;;5102230;28;20083;-77
2021/11/07 08:04:52;;;;;;;2.60;1.10;;;8.50;99.90;;;;;;5086220;28;20053;-77
2021/11/07 08:07:18;;;;;;;4.35;1.42;;;8.60;99.90;;;;;;5070245;28;20044;-77
2021/11/07 08:09:44;;;;;;;6.68;1.38;;;8.80;99.90;;;;;;5103594;28;20121;-77
2021/11/07 08:12:09;;;;;;;0.60;0.60;;;8.90;99.90;;;;;;5096199;28;20365;-77
2021/11/07 08:14:35;;;;;;;2.65;1.38;;;9.10;99.90;;;;;;5066315;28;20359;-78
2021/11/07 08:17:02;;;;;;;1.55;1.05;;;9.20;99.90;;;;;;5069371;28;20486;-77
2021/11/07 08:19:27;;;;;;;2.55;1.48;;;9.30;99.90;;;;;;5071450;28;20040;-77
2021/11/07 08:21:55;;;;;;;8.00;2.35;;;9.20;99.90;;;;;;5100358;28;20097;-78
2021/11/07 08:24:21;;;;;;;6.63;1.52;;;9.20;99.90;;;;;;5070328;28;20040;-78
2021/11/07 08:26:47;;;;;;;7.07;2.13;;;9.10;99.90;;;;;;5069965;28;20048;-75
2021/11/07 08:29:16;;;;;;;8.90;1.50;;;9.00;99.90;;;;;;5038599;28;20093;-77
2021/11/07 08:31:45;;;;;;;0.77;0.77;;;8.90;99.90;;;;;;5087497;28;20040;-77
2021/11/07 08:34:11;;;;;;;2.40;1.42;;;9.00;99.90;;;;;;5097220;28;20116;-77
2021/11/07 08:39:40;;;;;;;5.03;1.13;;;9.00;99.90;;;;;;5037495;28;20106;-78
2021/11/07 08:42:15;;;;;;;0.55;0.55;;;9.10;99.90;;;;;;5097115;28;20080;-78
2021/11/07 09:04:04;;;;;;;1.55;1.27;;;9.70;99.90;;;;;;5061797;28;20155;-77
2021/11/07 09:09:16;;;;;;;0.50;0.50;;;9.10;99.90;;;;;;5085045;28;20420;-82
2021/11/07 09:11:52;;;;;;;2.33;1.45;;;8.90;99.90;;;;;;5071643;28;20062;-82
2021/11/07 09:14:21;;;;;;;0.93;0.90;;;8.80;99.90;;;;;;5062214;28;20120;-81
2021/11/07 09:16:49;;;;;;;2.50;1.48;;;8.80;99.90;;;;;;5061218;28;20132;-80
2021/11/07 09:19:19;;;;;;;2.53;1.10;;;9.00;99.90;;;;;;5096599;28;20444;-81
2021/11/07 09:21:49;;;;;;;1.48;0.85;;;9.00;99.90;;;;;;5072636;28;20059;-81
2021/11/07 09:24:26;;;;;;;0.73;0.73;;;9.10;99.90;;;;;;5060894;28;20132;-80
2021/11/07 09:26:55;;;;;;;4.05;1.20;;;9.20;99.90;;;;;;5066297;28;20471;-80
2021/11/07 09:29:27;;;;;;;1.27;1.13;;;9.40;99.90;;;;;;5070210;28;20405;-81
2021/11/07 09:37:06;;;;;;;5.50;1.55;;;9.90;99.90;;;;;;5069493;28;20068;-80
2021/11/07 09:39:37;;;;;;;6.40;1.88;;;10.00;99.90;;;;;;5062289;28;20055;-80
2021/11/07 09:44:53;;;;;;;4.88;1.23;;;10.20;99.90;;;;;;5028082;28;20052;-80
2021/11/07 09:47:19;;;;;;;3.28;1.17;;;10.10;99.90;;;;;;5102913;27;20044;-79
2021/11/07 09:49:46;;;;;;;1.50;1.23;;;9.80;99.90;;;;;;5094256;28;20501;-81
2021/11/07 09:52:19;;;;;;;2.92;1.35;;;9.50;99.90;;;;;;5100209;27;20049;-81
2021/11/07 09:54:51;;;;;;;3.35;1.23;;;9.30;99.90;;;;;;5070714;28;20264;-79
2021/11/07 09:57:24;;;;;;;9.52;1.77;;;9.30;99.90;;;;;;5066555;28;20044;-81
2021/11/07 09:59:57;;;;;;;6.15;1.08;;;9.30;99.90;;;;;;5073282;28;20036;-81
2021/11/07 10:02:26;;;;;;;14.55;1.73;;;9.40;99.90;;;;;;5070218;28;20051;-80
2021/11/07 10:04:53;;;;;;;1.10;1.00;;;9.40;99.90;;;;;;5100338;28;20045;-81
2021/11/07 10:07:28;;;;;;;3.92;1.00;;;9.50;99.90;;;;;;5100468;28;20162;-81
2021/11/07 10:09:59;;;;;;;1.60;1.10;;;9.60;99.90;;;;;;5098692;27;20052;-80
2021/11/07 10:12:36;;;;;;;4.75;1.40;;;9.90;99.90;;;;;;5086642;28;20058;-80
2021/11/07 10:15:05;;;;;;;1.55;0.95;;;10.00;99.90;;;;;;5071595;28;20044;-81
2021/11/07 10:17:38;;;;;;;1.27;0.88;;;10.30;99.90;;;;;;5072582;28;20094;-80
2021/11/07 10:23:00;;;;;;;12.75;2.38;;;10.70;99.90;;;;;;5073220;28;20041;-82
2021/11/07 10:25:53;;;;;;;3.30;1.20;;;10.40;99.90;;;;;;5094467;28;20536;-81
2021/11/07 10:28:23;;;;;;;22.23;2.13;;;10.10;99.90;;;;;;5093930;28;20036;-81
2021/11/07 10:31:31;;;;;;;9.50;1.73;;;9.90;99.90;;;;;;5071283;28;20052;-80
2021/11/07 10:42:30;;;;;;;6.93;1.73;;;10.00;99.90;;;;;;5068338;28;20517;-81
2021/11/07 10:53:00;;;;;;;1.73;0.85;;;10.20;99.90;;;;;;5072950;28;20278;-81
2021/11/07 10:55:31;;;;;;;0.65;0.60;;;10.10;99.90;;;;;;5054123;28;20040;-80
2021/11/07 10:58:03;;;;;;;3.95;1.17;;;10.00;99.90;;;;;;5106294;27;20044;-81
2021/11/07 11:00:37;;;;;;;4.63;1.25;;;9.90;99.90;;;;;;5112559;27;20040;-83
2021/11/07 11:03:09;;;;;;;3.30;1.08;;;9.80;99.90;;;;;;5070276;28;20039;-83
2021/11/07 11:05:39;;;;;;;4.40;1.35;;;9.80;99.90;;;;;;5089572;28;20090;-80
2021/11/07 11:08:14;;;;;;;5.32;1.27;;;9.80;99.90;;;;;;5080399;28;20119;-78
2021/11/07 11:13:21;;;;;;;6.05;1.45;;;9.80;99.90;;;;;;5077682;28;20044;-78
2021/11/07 11:16:13;;;;;;;1.92;1.00;;;9.80;99.90;;;;;;5093001;28;20481;-79
2021/11/07 11:24:50;;;;;;;4.13;1.30;;;10.80;99.90;;;;;;5083393;28;20059;-79
2021/11/07 11:34:43;;;;;;;1.63;1.13;;;10.00;99.90;;;;;;5103885;27;20040;-78
2021/11/07 11:39:52;;;;;;;1.35;0.80;;;10.00;99.90;;;;;;5102592;28;20558;-78
2021/11/07 11:42:27;;;;;;;4.32;1.20;;;10.00;99.90;;;;;;5100149;28;20082;-78
2021/11/07 11:44:56;;;;;;;13.90;1.63;;;10.10;99.90;;;;;;5086393;28;20127;-77
2021/11/07 11:47:43;;;;;;;1.23;0.95;;;10.20;99.90;;;;;;5102450;28;20041;-77
2021/11/07 12:03:22;;;;;;;2.05;1.23;;;9.30;99.90;;;;;;5103567;28;20044;-78
2021/11/07 12:06:03;;;;;;;1.08;0.98;;;9.20;99.90;;;;;;5054321;28;20123;-78
2021/11/07 12:14:28;;;;;;;4.25;1.00;;;9.60;99.90;;;;;;5058770;28;20059;-76
2021/11/07 12:16:57;;;;;;;8.13;1.85;;;9.80;99.90;;;;;;5053178;28;20044;-77
2021/11/07 12:19:41;;;;;;;7.65;1.92;;;9.90;99.90;;;;;;5085098;28;20583;-78
2021/11/07 12:22:21;;;;;;;9.57;1.55;;;9.80;99.90;;;;;;5093990;28;20067;-76
2021/11/07 12:24:47;;;;;;;0.70;0.70;;;9.60;99.90;;;;;;5069109;28;20093;-80
2021/11/07 12:27:22;;;;;;;1.27;1.13;;;9.60;99.90;;;;;;5101061;28;20067;-79
2021/11/07 12:29:52;;;;;;;12.02;1.60;;;9.70;99.90;;;;;;5069803;28;20082;-78
2021/11/07 12:32:21;;;;;;;2.10;0.82;;;9.80;99.90;;;;;;5102696;28;20045;-76
2021/11/07 12:34:52;;;;;;;4.88;1.75;;;10.00;99.90;;;;;;5069597;28;20040;-77
2021/11/07 12:40:38;;;;;;;4.38;0.98;;;10.20;99.90;;;;;;5075273;28;20084;-78
2021/11/07 12:43:13;;;;;;;1.60;1.45;;;10.10;99.90;;;;;;5105058;28;20493;-77
2021/11/07 12:45:44;;;;;;;3.35;1.05;;;10.10;99.90;;;;;;5086626;28;20049;-77
2021/11/07 12:48:13;;;;;;;2.00;0.95;;;9.90;99.90;;;;;;5085669;28;20048;-77
2021/11/07 12:50:55;;;;;;;3.03;1.02;;;9.70;99.90;;;;;;5104939;28;20072;-77
2021/11/07 12:53:22;;;;;;;6.55;1.48;;;9.50;99.90;;;;;;5105391;28;20078;-77
2021/11/07 12:55:48;;;;;;;1.88;1.63;;;9.70;99.90;;;;;;5068021;28;20223;-78
2021/11/07 12:58:14;;;;;;;12.15;1.88;;;9.90;99.90;;;;;;5106604;28;20135;-79
2021/11/07 13:00:42;;;;;;;4.55;1.88;;;9.90;99.90;;;;;;5071837;28;20044;-79
2021/11/07 13:03:14;;;;;;;5.28;1.35;;;9.50;99.90;;;;;;5080693;28;20127;-77
2021/11/07 13:05:42;;;;;;;7.68;1.83;;;9.20;99.90;;;;;;5097685;28;20037;-80
2021/11/07 13:08:19;;;;;;;3.90;1.55;;;9.00;99.90;;;;;;5105747;28;20041;-78
2021/11/07 13:13:39;;;;;;;2.33;1.73;;;8.80;99.90;;;;;;5067108;28;20094;-75
2021/11/07 13:16:18;;;;;;;6.78;1.35;;;8.80;99.90;;;;;;5070408;28;20071;-77
2021/11/07 13:26:42;;;;;;;7.50;1.77;;;8.90;99.90;;;;;;5087244;28;20045;-76
2021/11/07 13:29:21;;;;;;;9.45;1.80;;;8.90;99.90;;;;;;5086981;28;20047;-80
2021/11/07 13:34:28;;;;;;;3.03;1.30;;;8.90;99.90;;;;;;5098944;27;20048;-80
2021/11/07 13:36:56;;;;;;;5.90;1.90;;;8.90;99.90;;;;;;5071681;28;20049;-79
2021/11/07 13:39:26;;;;;;;6.93;1.50;;;8.90;99.90;;;;;;5080698;28;20104;-79
2021/11/07 13:41:58;;;;;;;4.97;1.33;;;8.90;99.90;;;;;;5077683;28;20066;-76
2021/11/07 13:44:28;;;;;;;3.30;1.35;;;8.90;99.90;;;;;;5070706;28;20129;-77
2021/11/07 13:47:01;;;;;;;2.63;1.05;;;8.90;99.90;;;;;;5070151;28;20090;-78
2021/11/07 13:49:28;;;;;;;1.92;0.98;;;9.00;99.90;;;;;;5101094;28;20086;-78
2021/11/07 13:52:03;;;;;;;2.13;1.33;;;9.10;99.90;;;;;;5105756;28;20103;-78
2021/11/07 13:54:35;;;;;;;1.08;0.82;;;9.20;99.90;;;;;;5099634;28;20041;-77
2021/11/07 13:57:01;;;;;;;1.35;0.70;;;9.30;99.90;;;;;;5056032;28;20051;-73
2021/11/07 13:59:39;;;;;;;0.77;0.77;;;9.30;99.90;;;;;;5085325;28;20036;-78
2021/11/07 14:02:13;;;;;;;1.42;1.33;;;9.30;99.90;;;;;;5071809;28;20044;-77
2021/11/07 14:04:48;;;;;;;2.05;1.00;;;9.40;99.90;;;;;;5072652;28;20032;-75
2021/11/07 14:07:32;;;;;;;9.50;1.63;;;9.60;99.90;;;;;;5100286;28;20120;-76
2021/11/07 14:10:11;;;;;;;2.70;1.08;;;9.90;99.90;;;;;;5068034;28;20040;-78
2021/11/07 14:12:43;;;;;;;1.25;1.10;;;10.20;99.90;;;;;;5101934;28;20051;-78
2021/11/07 14:15:25;;;;;;;3.00;1.98;;;10.20;99.90;;;;;;5061386;28;20477;-77
2021/11/07 14:17:54;;;;;;;4.18;1.58;;;10.10;99.90;;;;;;5090304;28;20108;-76
2021/11/07 14:20:37;;;;;;;1.85;1.00;;;9.80;99.90;;;;;;5047865;28;20493;-78
2021/11/07 14:23:12;;;;;;;4.50;0.73;;;9.70;99.90;;;;;;5101038;28;20056;-76
2021/11/07 14:25:53;;;;;;;2.42;1.13;;;9.70;99.90;;;;;;5067842;28;20044;-79
2021/11/07 14:28:27;;;;;;;1.95;1.02;;;9.70;99.90;;;;;;5061236;28;20354;-76
2021/11/07 14:30:56;;;;;;;0.70;0.57;;;9.70;99.90;;;;;;5102236;28;20505;-77
2021/11/07 14:33:27;;;;;;;1.67;1.35;;;9.70;99.90;;;;;;5061163;28;20081;-76
2021/11/07 14:35:57;;;;;;;1.77;1.35;;;9.60;99.90;;;;;;5086680;28;20564;-76
2021/11/07 14:38:30;;;;;;;2.72;1.20;;;9.60;99.90;;;;;;5095936;27;20170;-79
2021/11/07 14:41:09;;;;;;;1.00;0.90;;;9.50;99.90;;;;;;5099646;28;20045;-74
2021/11/07 14:43:45;;;;;;;5.80;1.60;;;9.50;99.90;;;;;;5050272;28;20044;-77
2021/11/07 14:49:19;;;;;;;3.55;1.30;;;9.40;99.90;;;;;;5098138;28;20059;-77
2021/11/07 14:59:43;;;;;;;3.78;0.80;;;9.30;99.90;;;;;;5093967;28;20396;-75
2021/11/07 15:05:13;;;;;;;3.92;1.98;;;9.10;99.90;;;;;;5094399;28;20041;-78
2021/11/07 15:10:35;;;;;;;1.42;1.25;;;9.00;99.90;;;;;;5101924;28;20060;-79
2021/11/07 15:21:55;;;;;;;2.55;0.95;;;8.60;99.90;;;;;;5051004;28;20123;-75
2021/11/07 15:24:44;;;;;;;0.77;0.75;;;8.60;99.90;;;;;;5098962;28;20036;-75
2021/11/07 15:27:28;;;;;;;3.30;1.27;;;8.70;99.90;;;;;;5054376;28;20064;-76
2021/11/07 15:29:56;;;;;;;1.42;1.33;;;8.70;99.90;;;;;;5097270;28;20048;-76
2021/11/07 15:32:26;;;;;;;5.00;1.55;;;8.70;99.90;;;;;;5066109;28;20115;-74
2021/11/07 15:34:53;;;;;;;6.18;1.42;;;8.70;99.90;;;;;;5082226;28;20078;-76
2021/11/07 15:37:28;;;;;;;3.67;1.00;;;9.30;99.90;;;;;;5080915;28;20092;-76
2021/11/07 15:39:57;;;;;;;8.90;2.03;;;8.60;99.90;;;;;;5085950;28;20465;-77
2021/11/07 15:42:30;;;;;;;7.85;1.27;;;8.60;99.90;;;;;;5102026;28;20052;-75
2021/11/07 15:45:02;;;;;;;0.85;0.80;;;8.60;99.90;;;;;;5067542;28;20052;-75
2021/11/07 15:47:33;;;;;;;3.70;0.80;;;8.60;99.90;;;;;;5095545;28;20037;-77
2021/11/07 15:53:06;;;;;;;1.88;1.13;;;8.60;99.90;;;;;;5104074;27;20457;-75
2021/11/07 15:55:45;;;;;;;1.40;1.33;;;8.50;99.90;;;;;;5068584;28;20106;-78
2021/11/07 16:03:57;;;;;;;1.45;1.35;;;8.40;99.90;;;;;;5080207;28;20087;-76
2021/11/07 16:16:42;;;;;;;3.25;1.23;;;8.20;99.90;;;;;;5097225;28;20053;-76
2021/11/07 16:19:13;;;;;;;1.13;1.10;;;8.10;99.90;;;;;;5084240;28;20059;-79
2021/11/07 16:21:53;;;;;;;0.90;0.80;;;8.10;99.90;;;;;;5097362;28;20044;-76
2021/11/07 16:24:23;;;;;;;1.50;1.00;;;8.10;99.90;;;;;;5071464;28;20029;-78
2021/11/07 16:26:56;;;;;;;2.03;0.85;;;8.10;99.90;;;;;;5066746;28;20036;-77
2021/11/07 16:29:27;;;;;;;2.08;0.82;;;8.10;99.90;;;;;;5050380;28;20047;-77